Mammoth Cave National Park, KY

1:34 AM CST on March 06, 2015 (GMT -0600)
Ridgeview Drive | Change Station
CLOSE
Current Station
Personal Weather Station
Location: Bowling Green, KY
Elevation: 650 ft
Nearby Weather Stations
Active Advisory: Flood Warning Active Notice: Record Report

Elev 650 ft 36.99 °N, 86.52 °W | Updated 10 seconds ago

Clear
Clear
9.9 °F
Feels Like 10 °F
N
0.0
Wind Variable Wind from NNW
Gusts 0.0 mph

Today
High -- | Low -- °F
--% Chance of Precip.
Yesterday
High -- | Low -- °F
Precip. -- in
6:10 AM 5:44 PM
Full, 100% visible
Pressure 30.59 in
Visibility 10.0 miles
Clouds Clear
Windchill 10 °F
Dew Point 7 °F
Humidity 86%
Rainfall in
Snow Depth Not available.
UV 0 out of 12
Pollen .70 out of 12
Air Quality Not available.
Flu Activity Not available.
METAR KBWG 060653Z AUTO 00000KT 10SM CLR M11/M16 A3056 RMK AO2 SLP358 T11061156

More Conditions Fewer Conditions

Pressure 30.59 in
Visibility 10.0 miles
Clouds Clear
Windchill 10 °F
Dew Point 7 °F
Humidity 86%
Rainfall in
Snow Depth Not available.
UV 0 out of 12
Pollen .70 out of 12
Air Quality Not available.
Flu Activity Not available.
METAR KBWG 060653Z AUTO 00000KT 10SM CLR M11/M16 A3056 RMK AO2 SLP358 T11061156

More Conditions Fewer Conditions

10-Day Weather Forecast

Almanac

Astronomy

Mar. 06, 2015 Rise Set
Actual Time
Civil Twilight
Nautical Twilight
Astronomical Twilight
Moon
Length of Visible Light
Length of Day
Tomorrow will be .
, % of the Moon is Illuminated

Today's Extremes

State Highs State Lows

Community

WunderPhotos

Upload Photos

1,803,199 photos uploaded!

WunderBlogs® & News

Nearby

Air Quality

  Air Quality AQ Index Pollutant
Not available.

Snow Depth

Station Depth Elevation

Earthquake Activity

City Distance Mag. Time & Date
Minimum magnitude displayed is 2.5.

Coastal Water Temperatures

Place Temperature

Nearby Weather Stations

Flood Warning
Statement as of 9:49 PM EST on March 05, 2015

The Flood Warning continues for
the Green River at Woodbury.
* Until late Sunday night.
* At 8 PM CST Thursday the stage was 35.0 feet.
* Flood stage is 33.0 feet.
* Minor flooding is forecast.
* Forecast... the river will continue to rise to near 36.7 feet by
Friday early afternoon.
* Impact... at 37.0 feet... several County roads flood near Woodbury.
* Flood history... this crest compares to a previous crest of 36.7
feet on Mar 6 2008.


Lat... Lon 3724 8641 3728 8659 3739 8678 3728 8680
      3716 8665 3713 8641